Weather observations for the past three days for
Piarco International Airport
Metric (Imperial)
Date Time (ast) Wind (kph) Vis. (km) Weather Sky Cond. Temperature (ºC) Relative Humidity Wind Chill (°C) Heat Index (°C) Pressure Precipitation (cm)
Air Dwpt 6 hour altimeter (cm) sea level (mb) 1 hr 3 hr 6 hr
Max. Min.
03 02:00 Calm 0.00 A Few Clouds FEW016 26 22 79% 28 0 0.0
03 01:00 Calm 0.00 A Few Clouds FEW016 27 22 74% 29 0 0.0
03 00:00 Calm 0.00 A Few Clouds FEW016 27 23 79% 30 0 0.0
02 23:00 E 6 0.00 A Few Clouds FEW016 27 23 79% 30 0 0.0
02 22:00 Calm 0.00 A Few Clouds FEW016 27 23 79% 30 0 0.0
02 21:00 Calm 0.00 A Few Clouds FEW016 27 23 79% 30 0 0.0
02 20:00 Calm 0.00 A Few Clouds FEW018 28 23 74% 31 0 0.0
02 19:00 SE 11 0.00 A Few Clouds FEW020 28 23 74% 31 0 0.0
02 18:00 E 13 0.00 A Few Clouds FEW022 29 23 70% 33 0 0.0
02 17:00 E 22 0.00 A Few Clouds FEW025 30 24 70% 35 0 0.0
02 16:00 SE 15 0.00 A Few Clouds FEW028 31 23 62% 35 0 0.0
02 15:00 SE 17 0.00 A Few Clouds FEW028 32 23 59% 37 0 0.0
02 14:00 E 19 0.00 Partly Cloudy SCT028 31 23 62% 35 0 0.0
02 13:00 E 19 0.00 Mostly Cloudy FEW020 BKN030 32 22 55% 36 0 0.0
02 12:00 E 19 0.00 Mostly Cloudy FEW020 BKN030 32 23 59% 37 0 0.0
02 11:00 E 19 0.00 Partly Cloudy FEW020 SCT030 31 23 62% 35 0 0.0
02 10:00 E 20 0.00 Mostly Cloudy BKN025 31 24 66% 37 0 0.0
02 09:00 SE 13 0.00 Partly Cloudy FEW018 SCT025 30 24 70% 35 0 0.0
02 08:00 Calm 0.00 A Few Clouds FEW018 29 24 74% 34 0 0.0
02 07:00 Calm 0.00 A Few Clouds FEW016 26 24 89% 28 0 0.0
02 06:00 Calm 0.00 A Few Clouds FEW016 26 24 89% 28 0 0.0
02 05:00 Calm 0.00 A Few Clouds FEW016 26 24 89% 28 0 0.0
02 04:00 Calm 0.00 A Few Clouds FEW016 26 24 89% 28 0 0.0
02 03:00 Calm 0.00 A Few Clouds FEW016 26 24 89% 28 0 0.0
02 02:00 Calm 0.00 A Few Clouds FEW016 26 24 89% 28 0 0.0
02 01:00 E 6 0.00 Showers in Vicinity FEW016 26 24 89% 28 0 0.0
02 00:00 SE 6 0.00 A Few Clouds FEW016 26 24 89% 28 0 0.0
01 23:00 E 7 0.00 A Few Clouds FEW016 27 24 84% 30 0 0.0
01 22:00 E 6 0.00 A Few Clouds FEW018 27 24 84% 30 0 0.0
01 21:00 Calm 0.00 A Few Clouds FEW018 27 24 84% 30 0 0.0
01 20:00 SE 6 0.00 A Few Clouds FEW018 27 24 84% 30 0 0.0
01 19:00 SE 7 0.00 Showers in Vicinity FEW018 27 24 84% 30 0 0.0
01 18:00 E 17 0.00 Showers in Vicinity FEW018 28 24 79% 32 0 0.0
01 17:00 SE 26 0.00 Partly Cloudy FEW020 SCT038 29 24 74% 34 0 0.0
01 16:00 SE 22 0.00 Showers in Vicinity FEW010CB 31 23 62% 35 0 0.0
01 15:00 E 24 0.00 A Few Clouds FEW025 32 24 63% 38 0 0.0
01 14:00 E 22 0.00 A Few Clouds FEW025 32 24 63% 38 0 0.0
01 13:00 SE 13 0.00 Mostly Cloudy BKN020 31 23 62% 35 0 0.0
01 12:00 SE 19 0.00 Light Showers Rain Showers in Vicinity BKN020 31 23 62% 35 0 0.0
01 11:00 E 19 0.00 Mostly Cloudy BKN020 31 24 66% 37 0 0.0
01 10:00 SE 20 0.00 Light Showers Rain Showers in Vicinity BKN018 30 24 70% 35 0 0.0
01 09:00 E 19 0.00 Showers in Vicinity Showers Rain BKN018 30 25 75% 36 0 0.0
01 08:00 E 19 0.00 Showers in Vicinity FEW018 29 25 79% 35 0 0.0
01 07:00 Calm 0.00 Showers in Vicinity FEW016 27 25 89% 31 0 0.0
01 06:00 Calm 0.00 Showers in Vicinity FEW016 26 24 89% 28 0 0.0
01 05:00 Calm 0.00 A Few Clouds FEW016 26 24 89% 28 0 0.0
01 04:00 Calm 0.00 A Few Clouds FEW016 26 24 89% 28 0 0.0
01 03:00 Calm 0.00 A Few Clouds FEW016 26 24 89% 28 0 0.0
01 02:00 Calm 0.00 A Few Clouds FEW016 26 24 89% 28 0 0.0
01 01:00 Calm 0.00 A Few Clouds FEW016 26 25 94% 28 0 0.0
01 00:00 Calm 0.00 A Few Clouds FEW016 26 25 94% 28 0 0.0
31 23:00 Calm 0.00 Mostly Cloudy FEW016 BKN040 26 24 89% 28 0 0.0
31 22:00 Calm 0.00 Mostly Cloudy FEW016 BKN040 26 24 89% 28 0 0.0
31 21:00 Calm 0.00 A Few Clouds FEW016 26 24 89% 28 0 0.0
31 20:00 SE 13 0.00 Showers in Vicinity FEW016 SCT036 26 24 89% 28 0 0.0
31 19:00 Calm 0.00 Showers in Vicinity FEW012CB SCT016 26 24 89% 28 0 0.0
31 18:00 NE 9 0.00 Light Showers Rain Showers in Vicinity SCT016 25 23 89% 26 0 0.0
31 17:00 E 15 0.00 Light Showers Rain Showers in Vicinity SCT018 26 24 89% 28 0 0.0
31 16:00 E 15 0.00 Partly Cloudy FEW012CB SCT018 25 24 94% 26 0 0.0
31 15:00 E 26 0.00 Partly Cloudy FEW014TCU SCT020 28 24 79% 32 0 0.0
31 14:00 E 26 0.00 Showers in Vicinity FEW010CB 31 24 66% 37 0 0.0
31 13:00 E 26 0.00 Showers in Vicinity SCT022 32 23 59% 37 0 0.0
31 12:00 SE 26 0.00 Partly Cloudy SCT025 32 23 59% 37 0 0.0
31 11:00 E 26 0.00 A Few Clouds FEW022 32 23 59% 37 0 0.0
31 10:00 E 30 0.00 A Few Clouds FEW020 31 24 66% 37 0 0.0
31 09:00 E 26 0.00 A Few Clouds FEW018 30 24 70% 35 0 0.0
31 08:00 E 22 0.00 A Few Clouds FEW016 29 24 74% 34 0 0.0
31 07:00 E 15 0.00 Showers in Vicinity FEW016 27 24 84% 30 0 0.0
31 06:00 E 9 0.00 A Few Clouds FEW016 26 25 94% 28 0 0.0
31 05:00 E 11 0.00 A Few Clouds FEW016 26 24 89% 28 0 0.0
31 04:00 SE 9 0.00 A Few Clouds FEW016 26 24 89% 28 0 0.0
31 03:00 SE 6 0.00 A Few Clouds FEW016 26 22 79% 28 0 0.0
Date Time (ast) Wind (kph) Vis. (km) Weather Sky Cond. Air Dwpt Max. Min. Relative Humidity Wind Chill (°C) Heat Index (°C) altimeter (cm) sea level (mb) 1 hr 3 hr 6 hr
6 hour
Temperature (ºC) Pressure Precipitation (cm)